createdAt,value
2019-01-26T00:00:07.378Z,6.40
2019-01-26T00:02:37.803Z,6.40
2019-01-26T00:05:08.186Z,6.40
2019-01-26T00:07:38.509Z,6.40
2019-01-26T00:10:08.873Z,6.30
2019-01-26T00:12:40.012Z,6.40
2019-01-26T00:15:10.388Z,6.40
2019-01-26T00:17:48.162Z,6.50
2019-01-26T00:20:18.536Z,6.50
2019-01-26T00:22:48.961Z,6.50
2019-01-26T00:25:20.730Z,6.50
2019-01-26T00:27:50.879Z,6.60
2019-01-26T00:30:22.021Z,6.60
2019-01-26T00:32:53.160Z,6.60
2019-01-26T00:35:24.303Z,6.60
2019-01-26T00:37:55.488Z,6.60
2019-01-26T00:40:25.871Z,6.60
2019-01-26T00:42:56.961Z,6.70
2019-01-26T00:45:27.398Z,6.70
2019-01-26T00:48:19.997Z,6.80
2019-01-26T00:50:51.202Z,6.80
2019-01-26T00:53:21.768Z,6.80
2019-01-26T00:55:53.003Z,6.80
2019-01-26T00:58:23.931Z,6.80
2019-01-26T01:00:53.784Z,6.80
2019-01-26T01:03:24.225Z,6.80
2019-01-26T01:05:55.360Z,6.90
2019-01-26T01:08:25.975Z,6.90
2019-01-26T01:10:57.184Z,6.90
2019-01-26T01:13:27.763Z,6.90
2019-01-26T01:15:58.193Z,6.90
2019-01-26T01:18:28.577Z,7.00
2019-01-26T01:20:59.101Z,6.90
2019-01-26T01:23:29.396Z,6.90
2019-01-26T01:25:59.775Z,7.00
2019-01-26T01:28:30.921Z,7.00
2019-01-26T01:31:02.077Z,7.00
2019-01-26T01:33:33.529Z,7.00
2019-01-26T01:36:05.884Z,7.00
2019-01-26T01:38:36.256Z,6.90
2019-01-26T01:41:06.693Z,7.00
2019-01-26T01:43:43.270Z,7.00
2019-01-26T01:46:33.012Z,7.00
2019-01-26T01:49:04.207Z,7.00
2019-01-26T01:51:35.618Z,7.00
2019-01-26T01:54:05.995Z,7.00
2019-01-26T01:56:36.431Z,6.90
2019-01-26T01:59:06.816Z,6.90
2019-01-26T02:01:37.827Z,6.90
2019-01-26T02:04:09.151Z,6.90
2019-01-26T02:06:39.709Z,6.90
2019-01-26T02:09:10.341Z,6.90
2019-01-26T02:11:41.600Z,6.90
2019-01-26T02:14:12.164Z,6.90
2019-01-26T02:16:42.577Z,6.90
2019-01-26T02:19:18.117Z,6.90
2019-01-26T02:21:48.483Z,6.90
2019-01-26T02:24:18.871Z,6.90
2019-01-26T02:26:49.473Z,7.00
2019-01-26T02:29:20.026Z,7.00
2019-01-26T02:31:50.416Z,7.00
2019-01-26T02:34:20.836Z,7.00
2019-01-26T02:36:51.204Z,7.00
2019-01-26T02:39:21.532Z,7.00
2019-01-26T02:41:52.031Z,6.90
2019-01-26T02:47:04.362Z,6.90
2019-01-26T02:49:35.690Z,6.90
2019-01-26T02:52:06.011Z,6.90
2019-01-26T02:54:36.372Z,7.00
2019-01-26T02:57:06.752Z,7.00
2019-01-26T02:59:37.121Z,7.00
2019-01-26T03:02:07.635Z,7.00
2019-01-26T03:04:38.767Z,7.00
2019-01-26T03:07:09.138Z,6.90
2019-01-26T03:09:39.766Z,7.00
2019-01-26T03:12:11.168Z,7.00
2019-01-26T03:14:41.539Z,7.00
2019-01-26T03:17:11.960Z,7.00
2019-01-26T03:19:43.104Z,7.00
2019-01-26T03:22:13.483Z,7.00
2019-01-26T03:24:43.927Z,7.00
2019-01-26T03:27:14.356Z,7.00
2019-01-26T03:29:44.665Z,7.00
2019-01-26T03:32:15.057Z,7.00
2019-01-26T03:34:45.440Z,7.00
2019-01-26T03:37:15.801Z,7.00
2019-01-26T03:39:46.297Z,7.00
2019-01-26T03:42:16.754Z,7.00
2019-01-26T03:44:47.323Z,7.00
2019-01-26T03:47:17.939Z,7.00
2019-01-26T03:49:50.356Z,7.00
2019-01-26T03:52:20.744Z,7.00
2019-01-26T03:54:51.175Z,7.00
2019-01-26T03:57:21.497Z,7.00
2019-01-26T03:59:51.926Z,7.00
2019-01-26T04:02:22.307Z,7.00
2019-01-26T04:04:53.380Z,7.00
2019-01-26T04:07:23.802Z,7.00
2019-01-26T04:09:54.421Z,7.00
2019-01-26T04:12:24.983Z,7.00
2019-01-26T04:14:55.464Z,7.00
2019-01-26T04:17:26.603Z,7.00
2019-01-26T04:19:57.162Z,7.00
2019-01-26T04:22:27.563Z,7.00
2019-01-26T04:24:58.712Z,7.00
2019-01-26T04:27:29.850Z,7.00
2019-01-26T04:30:00.272Z,7.00
2019-01-26T04:32:30.914Z,7.00
2019-01-26T04:35:01.282Z,7.00
2019-01-26T04:37:35.828Z,7.00
2019-01-26T04:40:25.610Z,7.00
2019-01-26T04:42:55.991Z,7.10
2019-01-26T04:45:26.528Z,7.00
2019-01-26T04:47:56.943Z,7.00
2019-01-26T04:50:27.314Z,7.00
2019-01-26T04:52:57.637Z,7.00
2019-01-26T04:55:29.344Z,7.00
2019-01-26T04:58:00.498Z,7.00
2019-01-26T05:00:30.876Z,7.00
2019-01-26T05:03:01.310Z,7.00
2019-01-26T05:05:31.716Z,7.00
2019-01-26T05:08:02.479Z,7.00
2019-01-26T05:10:33.139Z,7.00
2019-01-26T05:13:04.463Z,7.00
2019-01-26T05:15:36.958Z,7.00
2019-01-26T05:18:07.303Z,7.00
2019-01-26T05:20:37.674Z,7.00
2019-01-26T05:23:08.294Z,7.00
2019-01-26T05:25:59.351Z,7.00
2019-01-26T05:28:29.800Z,7.00
2019-01-26T05:31:00.418Z,7.00
2019-01-26T05:33:30.766Z,7.00
2019-01-26T05:36:01.090Z,7.00
2019-01-26T05:38:31.531Z,7.00
2019-01-26T05:41:04.921Z,7.00
2019-01-26T05:43:35.426Z,7.00
2019-01-26T05:46:06.564Z,7.00
2019-01-26T05:48:38.118Z,7.00
2019-01-26T05:51:08.849Z,7.00
2019-01-26T05:53:39.989Z,7.00
2019-01-26T05:56:11.120Z,7.00
2019-01-26T05:58:41.552Z,7.00
2019-01-26T06:01:12.758Z,6.90
2019-01-26T06:03:47.223Z,6.90
2019-01-26T06:06:18.695Z,6.90
2019-01-26T06:08:49.006Z,6.90
2019-01-26T06:11:20.199Z,6.90
2019-01-26T06:13:50.576Z,6.90
2019-01-26T06:16:21.663Z,6.90
2019-01-26T06:18:53.116Z,6.90
2019-01-26T06:21:23.664Z,6.90
2019-01-26T06:23:55.113Z,6.90
2019-01-26T06:26:25.681Z,6.90
2019-01-26T06:28:56.758Z,6.90
2019-01-26T06:31:27.457Z,6.90
2019-01-26T06:33:59.617Z,6.90
2019-01-26T06:36:29.989Z,6.90
2019-01-26T06:39:00.413Z,6.90
2019-01-26T06:41:30.787Z,6.90
2019-01-26T06:44:01.100Z,6.90
2019-01-26T06:46:31.530Z,6.90
2019-01-26T06:49:02.101Z,6.90
2019-01-26T06:51:33.481Z,6.90
2019-01-26T06:54:05.908Z,6.80
2019-01-26T06:56:36.293Z,6.90
2019-01-26T06:59:06.738Z,6.90
2019-01-26T07:04:42.618Z,6.90
2019-01-26T07:07:14.163Z,6.80
2019-01-26T07:09:44.543Z,6.90
2019-01-26T07:12:14.901Z,6.90
2019-01-26T07:15:10.974Z,6.90
2019-01-26T07:17:41.331Z,6.80
2019-01-26T07:20:11.712Z,6.90
2019-01-26T07:22:42.088Z,6.90
2019-01-26T07:25:12.512Z,6.80
2019-01-26T07:27:42.958Z,6.80
2019-01-26T07:30:20.544Z,6.80
2019-01-26T07:32:51.468Z,6.80
2019-01-26T07:35:21.838Z,6.80
2019-01-26T07:37:52.209Z,6.80
2019-01-26T07:40:22.574Z,6.80
2019-01-26T07:42:55.963Z,6.80
2019-01-26T07:45:26.340Z,6.80
2019-01-26T07:47:57.179Z,6.70
2019-01-26T07:50:27.734Z,6.70
2019-01-26T07:52:58.055Z,6.80
2019-01-26T07:55:29.322Z,6.80
2019-01-26T07:57:59.929Z,6.70
2019-01-26T08:00:31.066Z,6.80
2019-01-26T08:03:02.216Z,6.80
2019-01-26T08:05:32.603Z,6.80
2019-01-26T08:08:03.027Z,6.80
2019-01-26T08:10:33.343Z,6.80
2019-01-26T08:13:25.191Z,6.80
2019-01-26T08:15:55.570Z,6.80
2019-01-26T08:18:25.993Z,6.80
2019-01-26T08:20:56.308Z,6.80
2019-01-26T08:23:27.452Z,6.80
2019-01-26T08:25:58.659Z,6.80
2019-01-26T08:28:29.021Z,6.80
2019-01-26T08:30:59.465Z,6.80
2019-01-26T08:33:29.834Z,6.80
2019-01-26T08:36:00.265Z,6.80
2019-01-26T08:38:30.691Z,6.90
2019-01-26T08:41:01.133Z,6.80
2019-01-26T08:43:31.694Z,6.80
2019-01-26T08:46:02.833Z,6.80
2019-01-26T08:48:33.265Z,6.70
2019-01-26T08:51:03.638Z,6.80
2019-01-26T08:53:56.519Z,6.90
2019-01-26T08:56:27.166Z,6.80
2019-01-26T08:58:58.404Z,6.90
2019-01-26T09:01:28.756Z,6.90
2019-01-26T09:04:02.013Z,6.90
2019-01-26T09:06:32.428Z,7.00
2019-01-26T09:09:03.816Z,7.00
2019-01-26T09:11:34.194Z,7.00
2019-01-26T09:14:04.579Z,7.00
2019-01-26T09:16:35.038Z,7.00
2019-01-26T09:19:12.727Z,7.00
2019-01-26T09:21:43.164Z,7.00
2019-01-26T09:24:33.093Z,7.10
2019-01-26T09:27:04.286Z,7.10
2019-01-26T09:29:40.806Z,7.10
2019-01-26T09:32:12.004Z,7.10
2019-01-26T09:34:49.553Z,7.10
2019-01-26T09:37:20.648Z,7.10
2019-01-26T09:39:50.964Z,7.10
2019-01-26T09:42:21.289Z,7.20
2019-01-26T09:44:52.002Z,7.20
2019-01-26T09:47:22.560Z,7.20
2019-01-26T09:50:12.622Z,7.20
2019-01-26T09:52:43.004Z,7.20
2019-01-26T09:55:19.030Z,7.20
2019-01-26T09:57:53.492Z,7.30
2019-01-26T10:03:07.721Z,7.40
2019-01-26T10:05:42.202Z,7.40
2019-01-26T10:08:13.560Z,7.40
2019-01-26T10:10:43.947Z,7.50
2019-01-26T10:13:14.422Z,7.60
2019-01-26T10:15:44.845Z,7.70
2019-01-26T10:18:16.441Z,7.70
2019-01-26T10:20:48.927Z,7.70
2019-01-26T10:23:40.598Z,7.70
2019-01-26T10:26:10.986Z,7.70
2019-01-26T10:28:41.555Z,7.70
2019-01-26T10:31:11.975Z,7.70
2019-01-26T10:33:42.347Z,7.70
2019-01-26T10:36:12.734Z,7.70
2019-01-26T10:38:44.007Z,7.80
2019-01-26T10:41:24.037Z,7.80
2019-01-26T10:43:55.235Z,7.80
2019-01-26T10:46:25.652Z,7.80
2019-01-26T10:49:00.675Z,7.80
2019-01-26T10:51:27.179Z,7.90
2019-01-26T10:53:57.600Z,7.80
2019-01-26T10:56:28.761Z,7.80
2019-01-26T10:58:59.149Z,7.80
2019-01-26T11:01:29.580Z,7.80
2019-01-26T11:03:59.963Z,7.90
2019-01-26T11:06:32.383Z,7.90
2019-01-26T11:09:02.839Z,7.80
2019-01-26T11:11:33.289Z,7.90
2019-01-26T11:14:03.668Z,7.90
2019-01-26T11:16:34.238Z,7.90
2019-01-26T11:19:08.056Z,7.90
2019-01-26T11:21:34.927Z,7.90
2019-01-26T11:24:05.317Z,7.90
2019-01-26T11:26:35.955Z,7.80
2019-01-26T11:29:06.277Z,7.80
2019-01-26T11:31:36.709Z,7.70
2019-01-26T11:34:07.273Z,7.70
2019-01-26T11:36:37.848Z,7.80
2019-01-26T11:39:08.575Z,7.80
2019-01-26T11:41:39.731Z,7.80
2019-01-26T11:44:10.112Z,7.70
2019-01-26T11:46:40.556Z,7.70
2019-01-26T11:49:15.036Z,7.70
2019-01-26T11:51:42.314Z,7.70
2019-01-26T11:54:12.767Z,7.70
2019-01-26T11:56:43.150Z,7.70
2019-01-26T11:59:17.611Z,7.70
2019-01-26T12:01:49.079Z,7.80
2019-01-26T12:04:27.448Z,7.80
2019-01-26T12:06:57.788Z,7.80
2019-01-26T12:09:31.460Z,7.80
2019-01-26T12:12:02.001Z,7.80
2019-01-26T12:14:32.332Z,7.80
2019-01-26T12:17:02.706Z,7.80
2019-01-26T12:19:33.126Z,7.80
2019-01-26T12:22:04.254Z,7.70
2019-01-26T12:24:34.638Z,7.70
2019-01-26T12:27:24.183Z,7.70
2019-01-26T12:29:54.507Z,7.70
2019-01-26T12:32:24.887Z,7.80
2019-01-26T12:34:55.496Z,7.70
2019-01-26T12:37:33.195Z,7.70
2019-01-26T12:40:12.444Z,7.80
2019-01-26T12:43:04.234Z,7.90
2019-01-26T12:45:35.006Z,7.90
2019-01-26T12:48:05.381Z,7.90
2019-01-26T12:50:36.466Z,7.90
2019-01-26T12:53:09.972Z,7.90
2019-01-26T12:55:40.338Z,7.90
2019-01-26T12:58:10.778Z,8.00
2019-01-26T13:00:41.161Z,8.10
2019-01-26T13:03:11.786Z,8.10
2019-01-26T13:05:42.174Z,8.00
2019-01-26T13:08:12.544Z,8.10
2019-01-26T13:13:34.831Z,8.10
2019-01-26T13:16:05.204Z,8.10
2019-01-26T13:18:35.764Z,8.10
2019-01-26T13:21:06.148Z,8.20
2019-01-26T13:23:36.518Z,8.20
2019-01-26T13:26:07.210Z,8.20
2019-01-26T13:28:37.598Z,8.20
2019-01-26T13:31:07.974Z,8.20
2019-01-26T13:33:38.406Z,8.20
2019-01-26T13:36:08.793Z,8.10
2019-01-26T13:38:39.715Z,8.10
2019-01-26T13:41:10.084Z,8.10
2019-01-26T13:43:40.660Z,8.10
2019-01-26T13:46:11.090Z,8.10
2019-01-26T13:48:41.471Z,8.10
2019-01-26T13:51:13.118Z,8.10
2019-01-26T13:53:42.301Z,8.10
2019-01-26T13:56:13.436Z,8.10
2019-01-26T13:58:43.818Z,8.10
2019-01-26T14:01:16.307Z,8.10
2019-01-26T14:03:46.682Z,8.10
2019-01-26T14:06:17.067Z,8.10
2019-01-26T14:08:47.481Z,8.10
2019-01-26T14:11:17.862Z,8.10
2019-01-26T14:13:48.185Z,8.10
2019-01-26T14:16:18.562Z,8.10
2019-01-26T14:18:48.992Z,8.10
2019-01-26T14:21:19.309Z,8.10
2019-01-26T14:23:49.793Z,8.10
2019-01-26T14:26:22.156Z,8.10
2019-01-26T14:28:52.560Z,8.10
2019-01-26T14:31:22.924Z,8.10
2019-01-26T14:33:53.461Z,8.10
2019-01-26T14:36:24.089Z,8.10
2019-01-26T14:38:54.721Z,8.00
2019-01-26T14:41:28.341Z,8.10
2019-01-26T14:43:58.652Z,8.10
2019-01-26T14:46:29.029Z,8.10
2019-01-26T14:48:59.412Z,8.00
2019-01-26T14:51:29.794Z,8.00
2019-01-26T14:54:00.389Z,7.90
2019-01-26T14:56:30.948Z,7.90
2019-01-26T14:59:02.337Z,7.80
2019-01-26T15:01:32.774Z,7.80
2019-01-26T15:04:03.482Z,7.80
2019-01-26T15:06:33.869Z,7.80
2019-01-26T15:09:04.267Z,7.80
2019-01-26T15:11:34.853Z,7.80
2019-01-26T15:14:05.230Z,7.80
2019-01-26T15:16:35.607Z,7.80
2019-01-26T15:19:06.290Z,7.80
2019-01-26T15:21:37.696Z,7.80
2019-01-26T15:24:09.028Z,7.80
2019-01-26T15:26:39.588Z,7.80
2019-01-26T15:29:10.730Z,7.80
2019-01-26T15:31:41.887Z,7.80
2019-01-26T15:34:12.267Z,7.80
2019-01-26T15:36:42.654Z,7.80
2019-01-26T15:39:13.106Z,7.80
2019-01-26T15:41:44.704Z,7.80
2019-01-26T15:44:15.838Z,7.80
2019-01-26T15:46:47.282Z,7.80
2019-01-26T15:49:17.654Z,7.80
2019-01-26T15:51:48.040Z,7.70
2019-01-26T15:54:18.465Z,7.80
2019-01-26T15:56:48.840Z,7.70
2019-01-26T15:59:20.307Z,7.70
2019-01-26T16:01:50.957Z,7.70
2019-01-26T16:04:21.341Z,7.70
2019-01-26T16:06:51.711Z,7.70
2019-01-26T16:09:22.229Z,7.70
2019-01-26T16:11:54.699Z,7.70
2019-01-26T16:14:27.132Z,7.70
2019-01-26T16:16:58.210Z,7.70
2019-01-26T16:19:28.625Z,7.70
2019-01-26T16:21:58.984Z,7.70
2019-01-26T16:24:30.379Z,7.70
2019-01-26T16:27:01.587Z,7.60
2019-01-26T16:29:31.967Z,7.60
2019-01-26T16:32:02.293Z,7.60
2019-01-26T16:34:32.855Z,7.60
2019-01-26T16:37:09.409Z,7.60
2019-01-26T16:39:39.793Z,7.60
2019-01-26T16:42:11.127Z,7.60
2019-01-26T16:44:42.168Z,7.60
2019-01-26T16:47:12.537Z,7.60
2019-01-26T16:49:43.112Z,7.70
2019-01-26T16:52:14.055Z,7.80
2019-01-26T16:54:43.911Z,7.70
2019-01-26T16:57:14.289Z,7.70
2019-01-26T16:59:44.668Z,7.60
2019-01-26T17:02:15.143Z,7.60
2019-01-26T17:04:45.522Z,7.70
2019-01-26T17:07:16.139Z,7.90
2019-01-26T17:09:47.348Z,7.60
2019-01-26T17:12:17.780Z,7.60
2019-01-26T17:17:34.445Z,7.70
2019-01-26T17:20:04.858Z,7.60
2019-01-26T17:22:36.216Z,7.50
2019-01-26T17:25:06.603Z,7.50
2019-01-26T17:27:37.163Z,7.40
2019-01-26T17:30:08.321Z,7.50
2019-01-26T17:32:40.433Z,7.50
2019-01-26T17:35:15.988Z,7.40
2019-01-26T17:37:46.368Z,7.50
2019-01-26T17:40:16.784Z,7.40
2019-01-26T17:42:47.107Z,7.40
2019-01-26T17:45:17.467Z,7.40
2019-01-26T17:47:47.846Z,7.40
2019-01-26T17:50:18.236Z,7.40
2019-01-26T17:53:07.080Z,7.40
2019-01-26T17:55:37.528Z,7.40
2019-01-26T17:58:08.022Z,7.40
2019-01-26T18:00:40.984Z,7.30
2019-01-26T18:03:11.432Z,7.30
2019-01-26T18:05:42.845Z,7.40
2019-01-26T18:08:13.283Z,7.30
2019-01-26T18:10:43.848Z,7.30
2019-01-26T18:13:14.221Z,7.30
2019-01-26T18:15:44.660Z,7.30
2019-01-26T18:18:15.034Z,7.30
2019-01-26T18:20:49.392Z,7.40
2019-01-26T18:23:15.900Z,7.40
2019-01-26T18:25:49.576Z,7.30
2019-01-26T18:28:20.722Z,7.30
2019-01-26T18:30:51.862Z,7.30
2019-01-26T18:33:23.058Z,7.40
2019-01-26T18:35:53.507Z,7.40
2019-01-26T18:38:23.828Z,7.30
2019-01-26T18:40:55.467Z,7.40
2019-01-26T18:43:25.849Z,7.40
2019-01-26T18:45:56.215Z,7.40
2019-01-26T18:48:33.941Z,7.40
2019-01-26T18:51:04.359Z,7.40
2019-01-26T18:53:34.784Z,7.40
2019-01-26T18:56:05.290Z,7.40
2019-01-26T18:58:43.175Z,7.40
2019-01-26T19:01:13.581Z,7.40
2019-01-26T19:03:55.715Z,7.30
2019-01-26T19:06:28.172Z,7.40
2019-01-26T19:09:00.597Z,7.40
2019-01-26T19:11:31.162Z,7.30
2019-01-26T19:14:02.361Z,7.30
2019-01-26T19:16:32.788Z,7.30
2019-01-26T19:19:03.350Z,7.30
2019-01-26T19:21:33.975Z,7.30
2019-01-26T19:24:04.479Z,7.30
2019-01-26T19:26:34.791Z,7.30
2019-01-26T19:29:24.740Z,7.30
2019-01-26T19:31:55.045Z,7.30
2019-01-26T19:34:26.181Z,7.30
2019-01-26T19:36:56.771Z,7.30
2019-01-26T19:39:32.492Z,7.30
2019-01-26T19:42:02.932Z,7.30
2019-01-26T19:44:33.577Z,7.30
2019-01-26T19:47:05.189Z,7.30
2019-01-26T19:49:35.749Z,7.30
2019-01-26T19:52:06.373Z,7.30
2019-01-26T19:54:36.747Z,7.30
2019-01-26T19:57:11.521Z,7.30
2019-01-26T19:59:42.672Z,7.30
2019-01-26T20:02:14.015Z,7.30
2019-01-26T20:04:44.457Z,7.30
2019-01-26T20:07:15.042Z,7.30
2019-01-26T20:09:45.706Z,7.30
2019-01-26T20:12:16.843Z,7.30
2019-01-26T20:14:48.010Z,7.30
2019-01-26T20:17:18.328Z,7.30
2019-01-26T20:19:52.486Z,7.30
2019-01-26T20:22:30.432Z,7.30
2019-01-26T20:25:02.092Z,7.30
2019-01-26T20:27:33.225Z,7.30
2019-01-26T20:30:04.623Z,7.30
2019-01-26T20:32:39.162Z,7.30
2019-01-26T20:35:09.486Z,7.30
2019-01-26T20:37:40.891Z,7.30
2019-01-26T20:42:57.054Z,7.30
2019-01-26T20:45:27.746Z,7.30
2019-01-26T20:47:58.374Z,7.30
2019-01-26T20:50:28.749Z,7.30
2019-01-26T20:52:59.069Z,7.30
2019-01-26T20:55:31.529Z,7.30
2019-01-26T20:58:03.959Z,7.30
2019-01-26T21:00:34.326Z,7.30
2019-01-26T21:03:05.771Z,7.30
2019-01-26T21:05:36.149Z,7.30
2019-01-26T21:08:06.805Z,7.30
2019-01-26T21:10:38.344Z,7.40
2019-01-26T21:13:08.771Z,7.40
2019-01-26T21:15:39.149Z,7.30
2019-01-26T21:18:13.685Z,7.30
2019-01-26T21:20:48.157Z,7.30
2019-01-26T21:23:18.590Z,7.30
2019-01-26T21:25:49.077Z,7.30
2019-01-26T21:28:19.451Z,7.30
2019-01-26T21:30:50.082Z,7.30
2019-01-26T21:33:20.456Z,7.30
2019-01-26T21:35:50.777Z,7.30
2019-01-26T21:38:40.583Z,7.20
2019-01-26T21:41:11.074Z,7.30
2019-01-26T21:43:45.547Z,7.20
2019-01-26T21:46:16.758Z,7.20
2019-01-26T21:48:47.140Z,7.20
2019-01-26T21:51:18.477Z,7.20
2019-01-26T21:53:49.877Z,7.20
2019-01-26T21:56:25.432Z,7.20
2019-01-26T21:58:55.807Z,7.20
2019-01-26T22:01:27.570Z,7.20
2019-01-26T22:03:56.633Z,7.20
2019-01-26T22:06:27.068Z,7.30
2019-01-26T22:08:57.453Z,7.20
2019-01-26T22:11:49.335Z,7.30
2019-01-26T22:14:20.660Z,7.30
2019-01-26T22:16:51.265Z,7.30
2019-01-26T22:19:28.986Z,7.20
2019-01-26T22:21:59.649Z,7.30
2019-01-26T22:24:30.212Z,7.30
2019-01-26T22:27:00.530Z,7.20
2019-01-26T22:29:31.356Z,7.30
2019-01-26T22:32:01.266Z,7.30
2019-01-26T22:34:32.966Z,7.30
2019-01-26T22:37:25.569Z,7.30
2019-01-26T22:39:56.723Z,7.30
2019-01-26T22:42:27.093Z,7.20
2019-01-26T22:44:57.469Z,7.30
2019-01-26T22:47:28.592Z,7.30
2019-01-26T22:49:58.961Z,7.30
2019-01-26T22:52:29.378Z,7.30
2019-01-26T22:54:59.763Z,7.30
2019-01-26T22:57:30.127Z,7.30
2019-01-26T23:00:00.650Z,7.30
2019-01-26T23:02:33.050Z,7.30
2019-01-26T23:05:14.371Z,7.30
2019-01-26T23:07:44.943Z,7.30
2019-01-26T23:13:22.261Z,7.30
2019-01-26T23:16:21.807Z,7.30
2019-01-26T23:19:05.858Z,7.30
2019-01-26T23:22:17.857Z,7.30
2019-01-26T23:25:08.764Z,7.30
2019-01-26T23:28:09.676Z,7.30
2019-01-26T23:30:47.578Z,7.30
2019-01-26T23:33:18.006Z,7.30
2019-01-26T23:35:48.386Z,7.30
2019-01-26T23:38:19.040Z,7.30
2019-01-26T23:40:50.391Z,7.30
2019-01-26T23:43:21.531Z,7.40
2019-01-26T23:45:52.161Z,7.30
2019-01-26T23:48:23.309Z,7.40
2019-01-26T23:50:54.588Z,7.30
2019-01-26T23:53:25.992Z,7.30
2019-01-26T23:55:56.359Z,7.30
2019-01-26T23:58:26.791Z,7.30
